Buoy 41910

sailwx.info

Track history (hours):
 
Tides and Currents Weather Stations Pressure Air Temp Water Temp Dewpoint Dewpoint Depression Visibility Wind Speed Wind Dir Waves Ship Positions

Drifting buoy 41910

Last reported at 2014-Oct-31 10:45 UTC. Time now 2014-Oct-31 11:38 UTC.
Position N 31°11' W 054°41'.

Water temperature 25.6 ° C

Date/timePositionNaut miles runAvg speedWind from/ knotsBaromVisibWave heightAir tempDewpointWater temp
2014-Oct-31 10:45N 31°11' W 054°41'1 8.4 25.6
2014-Oct-31 10:39N 31°12' W 054°41'0 2.6 25.6
2014-Oct-31 10:36N 31°12' W 054°41'0 0.0 25.6
2014-Oct-31 09:06N 31°12' W 054°41'0 0.0 25.6
2014-Oct-31 09:03N 31°12' W 054°41'114.5 25.6
2014-Oct-31 08:59N 31°13' W 054°41'0 0.0 25.6
2014-Oct-31 07:23N 31°13' W 054°41'0 1.0 25.6
2014-Oct-31 07:20N 31°13' W 054°41'0 0.7 25.6
2014-Oct-31 07:06N 31°13' W 054°41'1 9.1 25.7
2014-Oct-31 06:59N 31°12' W 054°41'0 0.0 25.7
2014-Oct-31 05:21N 31°12' W 054°41'0 0.0 25.7
2014-Oct-31 01:16N 31°12' W 054°41'1 1.8
2014-Oct-31 00:26N 31°11' W 054°40'0 0.0
2014-Oct-30 23:29N 31°11' W 054°40'0 0.0 25.7
2014-Oct-30 23:26N 31°11' W 054°40'0 0.0 25.7
2014-Oct-30 21:53N 31°11' W 054°40'1 0.7 25.7
2014-Oct-30 20:44N 31°11' W 054°39'0 1.2 25.8
2014-Oct-30 20:40N 31°11' W 054°39'110.5 25.8
2014-Oct-30 20:34N 31°10' W 054°38'0 0.1 25.8
2014-Oct-30 19:01N 31°10' W 054°38'1 6.2 25.8
2014-Oct-30 18:53N 31°11' W 054°37'0 1.6 25.8
2014-Oct-30 18:35N 31°11' W 054°38'5 0.7 25.8
2014-Oct-30 11:10N 31°14' W 054°33'0 0.0 25.8
2014-Oct-30 11:03N 31°14' W 054°33'0 0.1 25.8
2014-Oct-30 09:28N 31°13' W 054°33'0 1.2 25.8
2014-Oct-30 09:22N 31°13' W 054°33'0 0.0 25.8
2014-Oct-30 09:18N 31°13' W 054°33'0 1.0 25.8
2014-Oct-30 09:15N 31°13' W 054°33'0 0.0 25.8
2014-Oct-30 09:09N 31°13' W 054°33'0 0.0 25.8
2014-Oct-30 07:57N 31°13' W 054°33'0 1.8 25.8
2014-Oct-30 07:47N 31°14' W 054°33'0 1.2 25.8
2014-Oct-30 07:36N 31°14' W 054°33'0 2.3 25.8
2014-Oct-30 07:29N 31°14' W 054°33'0 0.0 25.8
2014-Oct-30 07:17N 31°14' W 054°33'323.5 25.8
2014-Oct-30 07:09N 31°14' W 054°29'0 0.0 25.8
2014-Oct-30 05:29N 31°14' W 054°29'0 0.0 25.8
2014-Oct-30 00:42N 31°14' W 054°29'0 0.0 25.8
2014-Oct-29 23:53N 31°14' W 054°29'0 0.0 25.8
2014-Oct-29 22:20N 31°14' W 054°29'1 1.0 25.9
2014-Oct-29 21:08N 31°14' W 054°28'0 0.0 25.9
2014-Oct-29 20:52N 31°14' W 054°28'0 0.0 25.9
2014-Oct-29 20:47N 31°14' W 054°28'1 0.9 25.9
2014-Oct-29 19:29N 31°14' W 054°27'0 0.0 25.9
2014-Oct-29 19:22N 31°14' W 054°27'0 0.0 25.9
2014-Oct-29 19:13N 31°14' W 054°27'0 0.0 25.9
2014-Oct-29 19:07N 31°14' W 054°27'2 5.9 25.9
2014-Oct-29 18:50N 31°15' W 054°25'2 1.2 25.9
2014-Oct-29 17:10N 31°17' W 054°24'2 0.3 25.9
2014-Oct-29 09:54N 31°18' W 054°22'0 2.5 25.8
2014-Oct-29 09:48N 31°18' W 054°22'0 0.0 25.8
2014-Oct-29 09:27N 31°18' W 054°22'1 0.5 25.8
2014-Oct-29 08:10N 31°19' W 054°22'0 0.2 25.8
2014-Oct-29 07:45N 31°19' W 054°22'0 3.8 25.8
2014-Oct-29 07:40N 31°19' W 054°22'0 0.0 25.8
2014-Oct-29 07:27N 31°19' W 054°22'1 0.6 25.8
2014-Oct-29 05:48N 31°20' W 054°22'113.8 25.9
2014-Oct-29 05:45N 31°20' W 054°21'0 0.0 25.9
2014-Oct-29 04:03N 31°20' W 054°21'0 0.1 25.9
2014-Oct-29 01:53N 31°20' W 054°21'0 0.0 25.9
2014-Oct-29 01:08N 31°20' W 054°21'0 0.6 25.9
2014-Oct-29 01:03N 31°20' W 054°21'0 0.1 25.9
2014-Oct-29 00:14N 31°20' W 054°21'2 2.0 25.9
2014-Oct-28 23:26N 31°20' W 054°19'0 0.0 25.9
2014-Oct-28 22:50N 31°20' W 054°19'0 0.0 25.9
2014-Oct-28 21:30N 31°20' W 054°19'0 0.7 25.9
2014-Oct-28 21:03N 31°20' W 054°20'0 0.0 25.9
2014-Oct-28 20:59N 31°20' W 054°20'1 0.9 25.9
2014-Oct-28 19:54N 31°20' W 054°18'0 1.7 26.0
2014-Oct-28 19:48N 31°20' W 054°19'1 1.7 26.0
2014-Oct-28 19:23N 31°20' W 054°18'1 2.3 26.0
2014-Oct-28 18:57N 31°21' W 054°17'1 1.1 26.0
2014-Oct-28 17:39N 31°22' W 054°17'1 0.5 26.0
2014-Oct-28 15:37N 31°23' W 054°16'1 1.1 25.9
2014-Oct-28 14:41N 31°24' W 054°16'0 0.0 25.9
2014-Oct-28 13:52N 31°24' W 054°16'0 0.0 25.9
2014-Oct-28 10:37N 31°24' W 054°16'0 0.7 25.8
2014-Oct-28 10:14N 31°25' W 054°16'0 5.1 25.8
2014-Oct-28 10:11N 31°25' W 054°16'0 0.1 25.8
2014-Oct-28 09:38N 31°25' W 054°16'0 0.2 25.8
2014-Oct-28 09:01N 31°25' W 054°17'1 1.4 25.8
2014-Oct-28 08:31N 31°25' W 054°17'0 0.5 25.8
2014-Oct-28 07:56N 31°25' W 054°17'0 0.4 25.8
2014-Oct-28 07:37N 31°25' W 054°17'0 0.7 25.8
2014-Oct-28 07:32N 31°25' W 054°17'0 0.0 25.8
2014-Oct-28 05:51N 31°25' W 054°17'0 0.0 25.8
2014-Oct-28 02:16N 31°25' W 054°17'0 0.0 25.8
2014-Oct-28 01:24N 31°25' W 054°17'1 0.8 25.8
2014-Oct-27 23:43N 31°26' W 054°16'0 0.0 25.8
2014-Oct-27 22:54N 31°26' W 054°16'0 0.0 25.8
2014-Oct-27 21:57N 31°26' W 054°16'1 6.3 25.8
2014-Oct-27 21:51N 31°26' W 054°15'112.5 25.8
2014-Oct-27 21:48N 31°26' W 054°16'1 1.1 25.8
2014-Oct-27 21:10N 31°26' W 054°15'1 1.3 25.8
2014-Oct-27 20:20N 31°27' W 054°16'1 0.8 25.8
2014-Oct-27 19:35N 31°27' W 054°15'1 2.4 25.8
2014-Oct-27 19:09N 31°28' W 054°14'0 0.0 25.9
2014-Oct-27 18:35N 31°28' W 054°14'0 0.0 25.9
2014-Oct-27 17:53N 31°28' W 054°14'411.0 25.9
2014-Oct-27 17:32N 31°30' W 054°18'0 0.0 25.9
2014-Oct-27 15:47N 31°30' W 054°18'0 0.0 25.9
2014-Oct-27 14:54N 31°30' W 054°18'0 0.1 25.9
2014-Oct-27 14:11N 31°30' W 054°18'0 0.0 25.8
2014-Oct-27 14:05N 31°30' W 054°18'0 0.0 25.8
2014-Oct-27 10:38N 31°30' W 054°18'0 0.0 25.8
2014-Oct-27 09:53N 31°30' W 054°18'1 4.4 25.8
2014-Oct-27 09:44N 31°30' W 054°18'0 0.0
2014-Oct-27 08:59N 31°30' W 054°18'0 4.7 25.8
2014-Oct-27 08:53N 31°30' W 054°19'1 1.4 25.8
2014-Oct-27 08:07N 31°29' W 054°19'0 0.0 25.8
2014-Oct-27 07:46N 31°29' W 054°19'0 0.1 25.8
2014-Oct-27 04:25N 31°29' W 054°19'2 0.3 25.8
2014-Oct-26 22:12N 31°29' W 054°17'0 0.0 25.8
2014-Oct-26 21:21N 31°29' W 054°17'1 1.3 25.8
2014-Oct-26 20:43N 31°30' W 054°17'0 0.0 25.8
2014-Oct-26 19:46N 31°30' W 054°17'114.8 25.8
2014-Oct-26 19:40N 31°31' W 054°18'0 0.0 25.8
2014-Oct-26 18:04N 31°31' W 054°18'410.7 25.8
2014-Oct-26 17:42N 31°30' W 054°23'0 0.0 25.8
2014-Oct-26 15:59N 31°30' W 054°23'0 0.0 25.8
2014-Oct-26 11:54N 31°30' W 054°23'0 0.0 25.8
2014-Oct-26 10:59N 31°30' W 054°23'0 0.3
2014-Oct-26 09:59N 31°30' W 054°23'0 3.2 25.8
2014-Oct-26 09:54N 31°30' W 054°23'1 0.9 25.8
2014-Oct-26 09:17N 31°30' W 054°22'0 0.0 25.8
2014-Oct-26 08:23N 31°30' W 054°22'0 5.3 25.8
2014-Oct-26 08:19N 31°29' W 054°22'113.7 25.8
2014-Oct-26 08:14N 31°28' W 054°22'0 0.0 25.8
2014-Oct-26 07:46N 31°28' W 054°22'0 0.0 25.8
2014-Oct-26 07:44N 31°28' W 054°22'2 1.5 25.8
2014-Oct-26 06:40N 31°29' W 054°20'0 0.0 25.8
2014-Oct-26 04:35N 31°29' W 054°20'0 0.0 25.9
2014-Oct-26 01:16N 31°29' W 054°20'1 0.5 25.9
2014-Oct-25 23:34N 31°30' W 054°20'0 0.0 25.9
2014-Oct-25 21:36N 31°30' W 054°20'2 3.7 26.0
2014-Oct-25 21:09N 31°31' W 054°21'0 0.0 26.0
2014-Oct-25 19:57N 31°31' W 054°21'0 0.0 26.0
2014-Oct-25 19:27N 31°31' W 054°21'0 0.4 26.0
2014-Oct-25 18:16N 31°31' W 054°21'1 0.6 26.0
2014-Oct-25 16:10N 31°31' W 054°23'2 0.6 26.0
2014-Oct-25 13:06N 31°30' W 054°24'0 0.0 25.9
2014-Oct-25 12:14N 31°30' W 054°24'0 0.2 25.8
2014-Oct-25 10:09N 31°29' W 054°24'0 0.0 25.8
2014-Oct-25 09:53N 31°29' W 054°24'1 5.3 25.8
2014-Oct-25 09:45N 31°29' W 054°24'0 0.0 25.8
2014-Oct-25 08:33N 31°29' W 054°24'0 1.9 25.8
2014-Oct-25 08:24N 31°29' W 054°24'0 0.0 25.8
2014-Oct-25 08:08N 31°29' W 054°24'4 2.9 25.8
2014-Oct-25 06:45N 31°32' W 054°21'0 0.0 25.8
2014-Oct-25 06:26N 31°32' W 054°21'0 0.0 25.8
2014-Oct-24 21:28N 31°32' W 054°21'0 0.0 25.9
2014-Oct-24 20:09N 31°32' W 054°21'1 5.2 25.9
2014-Oct-24 19:52N 31°33' W 054°23'0 0.1 25.9
2014-Oct-24 18:27N 31°33' W 054°23'3 8.0 25.9
2014-Oct-24 18:03N 31°30' W 054°25'0 0.0 26.0
2014-Oct-24 16:19N 31°30' W 054°25'0 0.0
2014-Oct-24 10:20N 31°30' W 054°25'0 0.0 25.8
2014-Oct-24 10:12N 31°30' W 054°25'133.1 25.8
2014-Oct-24 10:11N 31°29' W 054°24'0 0.0 25.8
2014-Oct-24 08:42N 31°29' W 054°24'0 0.8 25.8
2014-Oct-24 08:36N 31°29' W 054°24'0 0.0 25.8
2014-Oct-24 08:32N 31°29' W 054°24'5 6.0 25.8
2014-Oct-24 07:45N 31°33' W 054°21'0 0.0
2014-Oct-24 07:00N 31°33' W 054°21'0 0.0 25.8
2014-Oct-24 01:56N 31°33' W 054°21'0 0.2 25.8
2014-Oct-24 00:13N 31°33' W 054°21'0 0.0 25.9
2014-Oct-23 21:55N 31°33' W 054°21'1 0.6 25.9
2014-Oct-23 20:20N 31°34' W 054°22'290.1 26.0
2014-Oct-23 20:19N 31°33' W 054°24'0 0.2 26.0
2014-Oct-23 18:38N 31°33' W 054°24'217.5 26.0
2014-Oct-23 18:31N 31°33' W 054°27'6 3.1 26.0
2014-Oct-23 16:28N 31°28' W 054°21'0 0.0 26.0
2014-Oct-23 14:45N 31°28' W 054°21'0 0.0 25.9
2014-Oct-23 10:39N 31°28' W 054°21'1 9.2 25.8
2014-Oct-23 10:31N 31°28' W 054°19'0 0.0 25.8
2014-Oct-23 09:47N 31°28' W 054°19'0 0.0 25.8
2014-Oct-23 09:00N 31°28' W 054°19'0 1.8 25.8
2014-Oct-23 08:56N 31°28' W 054°19'2 0.9 25.8
2014-Oct-23 07:15N 31°28' W 054°18'6 0.7 25.8
2014-Oct-22 22:17N 31°34' W 054°18'0 0.0 25.9
2014-Oct-22 20:43N 31°34' W 054°18'0 0.0 25.9
2014-Oct-22 20:32N 31°34' W 054°18'1 0.7 25.9
2014-Oct-22 18:52N 31°33' W 054°18'818.7 26.0
2014-Oct-22 18:26N 31°31' W 054°09'0 0.0 26.0
2014-Oct-22 09:21N 31°31' W 054°09'0 6.2 25.8
2014-Oct-22 09:19N 31°31' W 054°09'0 0.0 25.8
2014-Oct-22 09:10N 31°31' W 054°09'0 3.2 25.8
2014-Oct-22 09:06N 31°31' W 054°09'216.8
2014-Oct-22 09:00N 31°32' W 054°08'210.1 25.8
2014-Oct-22 08:49N 31°31' W 054°09'2 1.3 25.8
2014-Oct-22 07:26N 31°32' W 054°08'655.2 25.8
2014-Oct-22 07:20N 31°38' W 054°10'0 0.0 25.8
2014-Oct-22 07:05N 31°38' W 054°10'0 0.0 25.8
2014-Oct-22 00:54N 31°38' W 054°10'0 0.0 25.9
2014-Oct-21 23:15N 31°38' W 054°10'0 0.0 26.0
2014-Oct-21 21:37N 31°38' W 054°10'0 0.0 26.2
2014-Oct-21 20:43N 31°38' W 054°10'215.9 26.4
2014-Oct-21 20:35N 31°37' W 054°12'0 0.0 26.4
2014-Oct-21 19:25N 31°37' W 054°12'1 6.3 26.8
2014-Oct-21 19:17N 31°36' W 054°11'0 0.0 26.8
2014-Oct-21 19:01N 31°36' W 054°11'215.3 26.8
2014-Oct-21 18:55N 31°35' W 054°10'0 0.0 26.7
2014-Oct-21 16:58N 31°35' W 054°10'8 4.6 26.5
2014-Oct-21 15:12N 31°37' W 054°01'0 0.0 26.2
2014-Oct-21 12:03N 31°37' W 054°01'0 0.0 25.8
2014-Oct-21 10:57N 31°37' W 054°01'   25.7
Track history (hours):
 
Tides and Currents Weather Stations Pressure Air Temp Water Temp Dewpoint Dewpoint Depression Visibility Wind Speed Wind Dir Waves Ship Positions

Drifting buoy 41910

Last reported at 2014-Oct-31 10:45 UTC. Time now 2014-Oct-31 11:38 UTC.
Position N 31°11' W 054°41'.

Water temperature 25.6 ° C

Date/timePositionNaut miles runAvg speedWind from/ knotsBaromVisibWave heightAir tempDewpointWater temp
2014-Oct-31 10:45N 31°11' W 054°41'1 8.4 25.6
2014-Oct-31 10:39N 31°12' W 054°41'0 2.6 25.6
2014-Oct-31 10:36N 31°12' W 054°41'0 0.0 25.6
2014-Oct-31 09:06N 31°12' W 054°41'0 0.0 25.6
2014-Oct-31 09:03N 31°12' W 054°41'114.5 25.6
2014-Oct-31 08:59N 31°13' W 054°41'0 0.0 25.6
2014-Oct-31 07:23N 31°13' W 054°41'0 1.0 25.6
2014-Oct-31 07:20N 31°13' W 054°41'0 0.7 25.6
2014-Oct-31 07:06N 31°13' W 054°41'1 9.1 25.7
2014-Oct-31 06:59N 31°12' W 054°41'0 0.0 25.7
2014-Oct-31 05:21N 31°12' W 054°41'0 0.0 25.7
2014-Oct-31 01:16N 31°12' W 054°41'1 1.8
2014-Oct-31 00:26N 31°11' W 054°40'0 0.0
2014-Oct-30 23:29N 31°11' W 054°40'0 0.0 25.7
2014-Oct-30 23:26N 31°11' W 054°40'0 0.0 25.7
2014-Oct-30 21:53N 31°11' W 054°40'1 0.7 25.7
2014-Oct-30 20:44N 31°11' W 054°39'0 1.2 25.8
2014-Oct-30 20:40N 31°11' W 054°39'110.5 25.8
2014-Oct-30 20:34N 31°10' W 054°38'0 0.1 25.8
2014-Oct-30 19:01N 31°10' W 054°38'1 6.2 25.8
2014-Oct-30 18:53N 31°11' W 054°37'0 1.6 25.8
2014-Oct-30 18:35N 31°11' W 054°38'5 0.7 25.8
2014-Oct-30 11:10N 31°14' W 054°33'0 0.0 25.8
2014-Oct-30 11:03N 31°14' W 054°33'0 0.1 25.8
2014-Oct-30 09:28N 31°13' W 054°33'0 1.2 25.8
2014-Oct-30 09:22N 31°13' W 054°33'0 0.0 25.8
2014-Oct-30 09:18N 31°13' W 054°33'0 1.0 25.8
2014-Oct-30 09:15N 31°13' W 054°33'0 0.0 25.8
2014-Oct-30 09:09N 31°13' W 054°33'0 0.0 25.8
2014-Oct-30 07:57N 31°13' W 054°33'0 1.8 25.8
2014-Oct-30 07:47N 31°14' W 054°33'0 1.2 25.8
2014-Oct-30 07:36N 31°14' W 054°33'0 2.3 25.8
2014-Oct-30 07:29N 31°14' W 054°33'0 0.0 25.8
2014-Oct-30 07:17N 31°14' W 054°33'323.5 25.8
2014-Oct-30 07:09N 31°14' W 054°29'0 0.0 25.8
2014-Oct-30 05:29N 31°14' W 054°29'0 0.0 25.8
2014-Oct-30 00:42N 31°14' W 054°29'0 0.0 25.8
2014-Oct-29 23:53N 31°14' W 054°29'0 0.0 25.8
2014-Oct-29 22:20N 31°14' W 054°29'1 1.0 25.9
2014-Oct-29 21:08N 31°14' W 054°28'0 0.0 25.9
2014-Oct-29 20:52N 31°14' W 054°28'0 0.0 25.9
2014-Oct-29 20:47N 31°14' W 054°28'1 0.9 25.9
2014-Oct-29 19:29N 31°14' W 054°27'0 0.0 25.9
2014-Oct-29 19:22N 31°14' W 054°27'0 0.0 25.9
2014-Oct-29 19:13N 31°14' W 054°27'0 0.0 25.9
2014-Oct-29 19:07N 31°14' W 054°27'2 5.9 25.9
2014-Oct-29 18:50N 31°15' W 054°25'2 1.2 25.9
2014-Oct-29 17:10N 31°17' W 054°24'2 0.3 25.9
2014-Oct-29 09:54N 31°18' W 054°22'0 2.5 25.8
2014-Oct-29 09:48N 31°18' W 054°22'0 0.0 25.8
2014-Oct-29 09:27N 31°18' W 054°22'1 0.5 25.8
2014-Oct-29 08:10N 31°19' W 054°22'0 0.2 25.8
2014-Oct-29 07:45N 31°19' W 054°22'0 3.8 25.8
2014-Oct-29 07:40N 31°19' W 054°22'0 0.0 25.8
2014-Oct-29 07:27N 31°19' W 054°22'1 0.6 25.8
2014-Oct-29 05:48N 31°20' W 054°22'113.8 25.9
2014-Oct-29 05:45N 31°20' W 054°21'0 0.0 25.9
2014-Oct-29 04:03N 31°20' W 054°21'0 0.1 25.9
2014-Oct-29 01:53N 31°20' W 054°21'0 0.0 25.9
2014-Oct-29 01:08N 31°20' W 054°21'0 0.6 25.9
2014-Oct-29 01:03N 31°20' W 054°21'0 0.1 25.9
2014-Oct-29 00:14N 31°20' W 054°21'2 2.0 25.9
2014-Oct-28 23:26N 31°20' W 054°19'0 0.0 25.9
2014-Oct-28 22:50N 31°20' W 054°19'0 0.0 25.9
2014-Oct-28 21:30N 31°20' W 054°19'0 0.7 25.9
2014-Oct-28 21:03N 31°20' W 054°20'0 0.0 25.9
2014-Oct-28 20:59N 31°20' W 054°20'1 0.9 25.9
2014-Oct-28 19:54N 31°20' W 054°18'0 1.7 26.0
2014-Oct-28 19:48N 31°20' W 054°19'1 1.7 26.0
2014-Oct-28 19:23N 31°20' W 054°18'1 2.3 26.0
2014-Oct-28 18:57N 31°21' W 054°17'1 1.1 26.0
2014-Oct-28 17:39N 31°22' W 054°17'1 0.5 26.0
2014-Oct-28 15:37N 31°23' W 054°16'1 1.1 25.9
2014-Oct-28 14:41N 31°24' W 054°16'0 0.0 25.9
2014-Oct-28 13:52N 31°24' W 054°16'0 0.0 25.9
2014-Oct-28 10:37N 31°24' W 054°16'0 0.7 25.8
2014-Oct-28 10:14N 31°25' W 054°16'0 5.1 25.8
2014-Oct-28 10:11N 31°25' W 054°16'0 0.1 25.8
2014-Oct-28 09:38N 31°25' W 054°16'0 0.2 25.8
2014-Oct-28 09:01N 31°25' W 054°17'1 1.4 25.8
2014-Oct-28 08:31N 31°25' W 054°17'0 0.5 25.8
2014-Oct-28 07:56N 31°25' W 054°17'0 0.4 25.8
2014-Oct-28 07:37N 31°25' W 054°17'0 0.7 25.8
2014-Oct-28 07:32N 31°25' W 054°17'0 0.0 25.8
2014-Oct-28 05:51N 31°25' W 054°17'0 0.0 25.8
2014-Oct-28 02:16N 31°25' W 054°17'0 0.0 25.8
2014-Oct-28 01:24N 31°25' W 054°17'1 0.8 25.8
2014-Oct-27 23:43N 31°26' W 054°16'0 0.0 25.8
2014-Oct-27 22:54N 31°26' W 054°16'0 0.0 25.8
2014-Oct-27 21:57N 31°26' W 054°16'1 6.3 25.8
2014-Oct-27 21:51N 31°26' W 054°15'112.5 25.8
2014-Oct-27 21:48N 31°26' W 054°16'1 1.1 25.8
2014-Oct-27 21:10N 31°26' W 054°15'1 1.3 25.8
2014-Oct-27 20:20N 31°27' W 054°16'1 0.8 25.8
2014-Oct-27 19:35N 31°27' W 054°15'1 2.4 25.8
2014-Oct-27 19:09N 31°28' W 054°14'0 0.0 25.9
2014-Oct-27 18:35N 31°28' W 054°14'0 0.0 25.9
2014-Oct-27 17:53N 31°28' W 054°14'411.0 25.9
2014-Oct-27 17:32N 31°30' W 054°18'0 0.0 25.9
2014-Oct-27 15:47N 31°30' W 054°18'0 0.0 25.9
2014-Oct-27 14:54N 31°30' W 054°18'0 0.1 25.9
2014-Oct-27 14:11N 31°30' W 054°18'0 0.0 25.8
2014-Oct-27 14:05N 31°30' W 054°18'0 0.0 25.8
2014-Oct-27 10:38N 31°30' W 054°18'0 0.0 25.8
2014-Oct-27 09:53N 31°30' W 054°18'1 4.4 25.8
2014-Oct-27 09:44N 31°30' W 054°18'0 0.0
2014-Oct-27 08:59N 31°30' W 054°18'0 4.7 25.8
2014-Oct-27 08:53N 31°30' W 054°19'1 1.4 25.8
2014-Oct-27 08:07N 31°29' W 054°19'0 0.0 25.8
2014-Oct-27 07:46N 31°29' W 054°19'0 0.1 25.8
2014-Oct-27 04:25N 31°29' W 054°19'2 0.3 25.8
2014-Oct-26 22:12N 31°29' W 054°17'0 0.0 25.8
2014-Oct-26 21:21N 31°29' W 054°17'1 1.3 25.8
2014-Oct-26 20:43N 31°30' W 054°17'0 0.0 25.8
2014-Oct-26 19:46N 31°30' W 054°17'114.8 25.8
2014-Oct-26 19:40N 31°31' W 054°18'0 0.0 25.8
2014-Oct-26 18:04N 31°31' W 054°18'410.7 25.8
2014-Oct-26 17:42N 31°30' W 054°23'0 0.0 25.8
2014-Oct-26 15:59N 31°30' W 054°23'0 0.0 25.8
2014-Oct-26 11:54N 31°30' W 054°23'0 0.0 25.8
2014-Oct-26 10:59N 31°30' W 054°23'0 0.3
2014-Oct-26 09:59N 31°30' W 054°23'0 3.2 25.8
2014-Oct-26 09:54N 31°30' W 054°23'1 0.9 25.8
2014-Oct-26 09:17N 31°30' W 054°22'0 0.0 25.8
2014-Oct-26 08:23N 31°30' W 054°22'0 5.3 25.8
2014-Oct-26 08:19N 31°29' W 054°22'113.7 25.8
2014-Oct-26 08:14N 31°28' W 054°22'0 0.0 25.8
2014-Oct-26 07:46N 31°28' W 054°22'0 0.0 25.8
2014-Oct-26 07:44N 31°28' W 054°22'2 1.5 25.8
2014-Oct-26 06:40N 31°29' W 054°20'0 0.0 25.8
2014-Oct-26 04:35N 31°29' W 054°20'0 0.0 25.9
2014-Oct-26 01:16N 31°29' W 054°20'1 0.5 25.9
2014-Oct-25 23:34N 31°30' W 054°20'0 0.0 25.9
2014-Oct-25 21:36N 31°30' W 054°20'2 3.7 26.0
2014-Oct-25 21:09N 31°31' W 054°21'0 0.0 26.0
2014-Oct-25 19:57N 31°31' W 054°21'0 0.0 26.0
2014-Oct-25 19:27N 31°31' W 054°21'0 0.4 26.0
2014-Oct-25 18:16N 31°31' W 054°21'1 0.6 26.0
2014-Oct-25 16:10N 31°31' W 054°23'2 0.6 26.0
2014-Oct-25 13:06N 31°30' W 054°24'0 0.0 25.9
2014-Oct-25 12:14N 31°30' W 054°24'0 0.2 25.8
2014-Oct-25 10:09N 31°29' W 054°24'0 0.0 25.8
2014-Oct-25 09:53N 31°29' W 054°24'1 5.3 25.8
2014-Oct-25 09:45N 31°29' W 054°24'0 0.0 25.8
2014-Oct-25 08:33N 31°29' W 054°24'0 1.9 25.8
2014-Oct-25 08:24N 31°29' W 054°24'0 0.0 25.8
2014-Oct-25 08:08N 31°29' W 054°24'4 2.9 25.8
2014-Oct-25 06:45N 31°32' W 054°21'0 0.0 25.8
2014-Oct-25 06:26N 31°32' W 054°21'0 0.0 25.8
2014-Oct-24 21:28N 31°32' W 054°21'0 0.0 25.9
2014-Oct-24 20:09N 31°32' W 054°21'1 5.2 25.9
2014-Oct-24 19:52N 31°33' W 054°23'0 0.1 25.9
2014-Oct-24 18:27N 31°33' W 054°23'3 8.0 25.9
2014-Oct-24 18:03N 31°30' W 054°25'0 0.0 26.0
2014-Oct-24 16:19N 31°30' W 054°25'0 0.0
2014-Oct-24 10:20N 31°30' W 054°25'0 0.0 25.8
2014-Oct-24 10:12N 31°30' W 054°25'133.1 25.8
2014-Oct-24 10:11N 31°29' W 054°24'0 0.0 25.8
2014-Oct-24 08:42N 31°29' W 054°24'0 0.8 25.8
2014-Oct-24 08:36N 31°29' W 054°24'0 0.0 25.8
2014-Oct-24 08:32N 31°29' W 054°24'5 6.0 25.8
2014-Oct-24 07:45N 31°33' W 054°21'0 0.0
2014-Oct-24 07:00N 31°33' W 054°21'0 0.0 25.8
2014-Oct-24 01:56N 31°33' W 054°21'0 0.2 25.8
2014-Oct-24 00:13N 31°33' W 054°21'0 0.0 25.9
2014-Oct-23 21:55N 31°33' W 054°21'1 0.6 25.9
2014-Oct-23 20:20N 31°34' W 054°22'290.1 26.0
2014-Oct-23 20:19N 31°33' W 054°24'0 0.2 26.0
2014-Oct-23 18:38N 31°33' W 054°24'217.5 26.0
2014-Oct-23 18:31N 31°33' W 054°27'6 3.1 26.0
2014-Oct-23 16:28N 31°28' W 054°21'0 0.0 26.0
2014-Oct-23 14:45N 31°28' W 054°21'0 0.0 25.9
2014-Oct-23 10:39N 31°28' W 054°21'1 9.2 25.8
2014-Oct-23 10:31N 31°28' W 054°19'0 0.0 25.8
2014-Oct-23 09:47N 31°28' W 054°19'0 0.0 25.8
2014-Oct-23 09:00N 31°28' W 054°19'0 1.8 25.8
2014-Oct-23 08:56N 31°28' W 054°19'2 0.9 25.8
2014-Oct-23 07:15N 31°28' W 054°18'6 0.7 25.8
2014-Oct-22 22:17N 31°34' W 054°18'0 0.0 25.9
2014-Oct-22 20:43N 31°34' W 054°18'0 0.0 25.9
2014-Oct-22 20:32N 31°34' W 054°18'1 0.7 25.9
2014-Oct-22 18:52N 31°33' W 054°18'818.7 26.0
2014-Oct-22 18:26N 31°31' W 054°09'0 0.0 26.0
2014-Oct-22 09:21N 31°31' W 054°09'0 6.2 25.8
2014-Oct-22 09:19N 31°31' W 054°09'0 0.0 25.8
2014-Oct-22 09:10N 31°31' W 054°09'0 3.2 25.8
2014-Oct-22 09:06N 31°31' W 054°09'216.8
2014-Oct-22 09:00N 31°32' W 054°08'210.1 25.8
2014-Oct-22 08:49N 31°31' W 054°09'2 1.3 25.8
2014-Oct-22 07:26N 31°32' W 054°08'655.2 25.8
2014-Oct-22 07:20N 31°38' W 054°10'0 0.0 25.8
2014-Oct-22 07:05N 31°38' W 054°10'0 0.0 25.8
2014-Oct-22 00:54N 31°38' W 054°10'0 0.0 25.9
2014-Oct-21 23:15N 31°38' W 054°10'0 0.0 26.0
2014-Oct-21 21:37N 31°38' W 054°10'0 0.0 26.2
2014-Oct-21 20:43N 31°38' W 054°10'215.9 26.4
2014-Oct-21 20:35N 31°37' W 054°12'0 0.0 26.4
2014-Oct-21 19:25N 31°37' W 054°12'1 6.3 26.8
2014-Oct-21 19:17N 31°36' W 054°11'0 0.0 26.8
2014-Oct-21 19:01N 31°36' W 054°11'215.3 26.8
2014-Oct-21 18:55N 31°35' W 054°10'0 0.0 26.7
2014-Oct-21 16:58N 31°35' W 054°10'8 4.6 26.5
2014-Oct-21 15:12N 31°37' W 054°01'0 0.0 26.2
2014-Oct-21 12:03N 31°37' W 054°01'0 0.0 25.8
2014-Oct-21 10:57N 31°37' W 054°01'   25.7

Dump ship's entire track history